Time;durP1;ratioP1;P1;durP2;ratioP2;P2;SDS_P1;SDS_P2;PMS_P1;PMS_P2;Temp;Humidity;BMP_temperature;BMP_pressure;BME280_temperature;BME280_humidity;BME280_pressure;Samples;Min_cycle;Max_cycle;Signal;HPM_P1;HPM_P2
2022/05/12 00:00:30;;;;;;;9.98;2.60;;;;;;;-143.53;100.00;58366.03;2048047;28;20211;-68
2022/05/12 00:01:32;;;;;;;5.03;2.38;;;;;;;-143.53;100.00;58366.03;2046490;28;20216;-68
2022/05/12 00:02:34;;;;;;;5.55;2.85;;;;;;;-143.53;100.00;58366.03;2048434;28;20200;-67
2022/05/12 00:03:35;;;;;;;5.35;1.90;;;;;;;-143.53;100.00;58366.03;2048044;28;20204;-68
2022/05/12 00:04:38;;;;;;;5.03;1.70;;;;;;;-143.53;100.00;58366.03;2048294;29;20195;-68
2022/05/12 00:05:39;;;;;;;4.75;1.85;;;;;;;-143.53;100.00;58366.03;2048487;28;20199;-68
2022/05/12 00:06:41;;;;;;;4.20;2.03;;;;;;;-143.53;100.00;58366.03;2047841;28;20230;-68
2022/05/12 00:07:43;;;;;;;5.95;2.10;;;;;;;-143.53;100.00;58366.03;2048325;29;20610;-68
2022/05/12 00:08:45;;;;;;;5.97;2.58;;;;;;;-143.53;100.00;58366.03;2045002;29;20615;-68
2022/05/12 00:09:46;;;;;;;4.57;2.10;;;;;;;-143.53;100.00;58366.03;2046951;28;20196;-68
2022/05/12 00:10:48;;;;;;;4.97;2.28;;;;;;;-143.53;100.00;58366.03;2046953;28;20199;-68
2022/05/12 00:11:49;;;;;;;5.13;2.17;;;;;;;-143.53;100.00;58366.03;2037570;29;20236;-68
2022/05/12 00:12:53;;;;;;;2.97;2.10;;;;;;;-143.53;100.00;58366.03;2047768;29;20298;-67
2022/05/12 00:13:54;;;;;;;3.58;1.70;;;;;;;-143.53;100.00;58366.03;2047942;29;20196;-68
2022/05/12 00:14:56;;;;;;;4.95;2.13;;;;;;;-143.53;100.00;58366.03;2048081;29;20207;-67
2022/05/12 00:15:58;;;;;;;2.35;1.83;;;;;;;-143.53;100.00;58366.03;2046624;28;20204;-68
2022/05/12 00:17:00;;;;;;;3.05;2.03;;;;;;;-143.53;100.00;58366.03;2047615;29;20278;-68
2022/05/12 00:18:06;;;;;;;3.05;2.40;;;;;;;-143.53;100.00;58366.03;2048529;28;20639;-68
2022/05/12 00:19:08;;;;;;;8.48;2.38;;;;;;;-143.53;100.00;58366.03;2046927;29;20207;-68
2022/05/12 00:20:12;;;;;;;2.92;1.80;;;;;;;-143.53;100.00;58366.03;2048377;28;20204;-68
2022/05/12 00:21:13;;;;;;;4.55;2.00;;;;;;;-143.53;100.00;58366.03;2047798;28;20231;-68
2022/05/12 00:22:14;;;;;;;3.25;2.15;;;;;;;-143.53;100.00;58366.03;2048264;28;20224;-68
2022/05/12 00:23:26;;;;;;;3.35;2.00;;;;;;;-143.53;100.00;58366.03;2047466;28;20197;-68
2022/05/12 00:24:28;;;;;;;7.57;2.10;;;;;;;-143.53;100.00;58366.03;2047608;29;20332;-68
2022/05/12 00:25:29;;;;;;;2.53;1.80;;;;;;;-143.53;100.00;58366.03;2046530;28;20226;-68
2022/05/12 00:26:34;;;;;;;3.47;1.80;;;;;;;-143.53;100.00;58366.03;2044131;28;20227;-68
2022/05/12 00:27:35;;;;;;;6.10;2.47;;;;;;;-143.53;100.00;58366.03;2045667;28;20196;-68
2022/05/12 00:28:37;;;;;;;3.25;2.10;;;;;;;-143.53;100.00;58366.03;2046729;28;20204;-68
2022/05/12 00:29:39;;;;;;;7.65;2.30;;;;;;;-143.53;100.00;58366.03;2047584;29;20204;-68
2022/05/12 00:30:43;;;;;;;3.35;1.92;;;;;;;-143.53;100.00;58366.03;2047610;28;20685;-68
2022/05/12 00:31:47;;;;;;;4.13;2.45;;;;;;;-143.53;100.00;58366.03;2046864;28;20230;-68
2022/05/12 00:32:49;;;;;;;7.13;2.50;;;;;;;-143.53;100.00;58366.03;2045170;29;20291;-68
2022/05/12 00:33:50;;;;;;;5.75;2.10;;;;;;;-143.53;100.00;58366.03;2046429;28;20662;-68
2022/05/12 00:34:52;;;;;;;6.30;2.25;;;;;;;-143.53;100.00;58366.03;2046644;29;20207;-68
2022/05/12 00:35:55;;;;;;;5.20;2.03;;;;;;;-143.53;100.00;58366.03;2047602;28;20203;-68
2022/05/12 00:36:57;;;;;;;4.85;2.50;;;;;;;-143.53;100.00;58366.03;2048237;28;20204;-68
2022/05/12 00:37:58;;;;;;;8.10;2.85;;;;;;;-143.53;100.00;58366.03;2045614;28;20200;-68
2022/05/12 00:39:00;;;;;;;9.65;2.70;;;;;;;-143.53;100.00;58366.03;2045647;29;20196;-67
2022/05/12 00:40:02;;;;;;;4.07;2.20;;;;;;;-143.53;100.00;58366.03;2047628;29;20203;-68
2022/05/12 00:41:04;;;;;;;6.35;2.70;;;;;;;-143.53;100.00;58366.03;2046790;28;20195;-68
2022/05/12 00:42:06;;;;;;;7.82;1.92;;;;;;;-143.53;100.00;58366.03;2046786;29;20210;-67
2022/05/12 00:43:33;;;;;;;5.63;2.10;;;;;;;-143.53;100.00;58366.03;2048156;28;20207;-67
2022/05/12 00:44:34;;;;;;;3.30;2.15;;;;;;;-143.53;100.00;58366.03;2046602;28;20203;-68
2022/05/12 00:45:37;;;;;;;4.95;2.20;;;;;;;-143.53;100.00;58366.03;2044619;29;20282;-68
2022/05/12 00:46:41;;;;;;;10.93;2.58;;;;;;;-143.53;100.00;58366.03;2044927;28;20278;-68
2022/05/12 00:47:42;;;;;;;3.03;1.33;;;;;;;-143.53;100.00;58366.03;2046220;29;20220;-68
2022/05/12 00:48:45;;;;;;;2.35;1.88;;;;;;;-143.53;100.00;58366.03;2047993;29;20204;-68
2022/05/12 00:49:49;;;;;;;10.60;2.22;;;;;;;-143.53;100.00;58366.03;2047511;29;20200;-68
2022/05/12 00:50:51;;;;;;;15.88;2.53;;;;;;;-143.53;100.00;58366.03;2046897;28;20259;-68
2022/05/12 00:51:58;;;;;;;4.05;2.33;;;;;;;-143.53;100.00;58366.03;2047532;29;20195;-68
2022/05/12 00:53:04;;;;;;;3.30;2.20;;;;;;;-143.53;100.00;58366.03;2046621;29;20204;-68
2022/05/12 00:54:19;;;;;;;8.85;2.38;;;;;;;-143.53;100.00;58366.03;2047855;29;20206;-68
2022/05/12 00:55:27;;;;;;;6.32;1.98;;;;;;;-143.53;100.00;58366.03;2044723;28;20533;-68
2022/05/12 00:56:29;;;;;;;5.03;1.65;;;;;;;-143.53;100.00;58366.03;2047560;28;20226;-68
2022/05/12 00:57:39;;;;;;;6.05;2.30;;;;;;;-143.53;100.00;58366.03;2048239;28;20350;-68
2022/05/12 00:58:41;;;;;;;9.82;2.80;;;;;;;-143.53;100.00;58366.03;2047199;29;20211;-68
2022/05/12 00:59:43;;;;;;;2.63;1.92;;;;;;;-143.53;100.00;58366.03;2046463;29;20207;-69
2022/05/12 01:00:45;;;;;;;2.67;1.90;;;;;;;-143.53;100.00;58366.03;2047464;29;20566;-68
2022/05/12 01:01:46;;;;;;;6.85;1.80;;;;;;;-143.53;100.00;58366.03;2047605;28;20255;-68
2022/05/12 01:02:52;;;;;;;15.27;2.85;;;;;;;-143.53;100.00;58366.03;2048063;28;20228;-68
2022/05/12 01:03:57;;;;;;;16.58;2.58;;;;;;;-143.53;100.00;58366.03;2047900;28;20243;-68
2022/05/12 01:04:59;;;;;;;4.57;1.88;;;;;;;-143.53;100.00;58366.03;2047456;29;20213;-68
2022/05/12 01:06:03;;;;;;;4.25;2.17;;;;;;;-143.53;100.00;58366.03;2046921;28;20199;-68
2022/05/12 01:07:05;;;;;;;5.70;2.35;;;;;;;-143.53;100.00;58366.03;2047542;28;20200;-68
2022/05/12 01:08:13;;;;;;;4.65;2.10;;;;;;;-143.53;100.00;58366.03;2047923;28;20199;-68
2022/05/12 01:09:15;;;;;;;2.90;1.98;;;;;;;-143.53;100.00;58366.03;2047582;29;20195;-68
2022/05/12 01:10:17;;;;;;;4.13;2.13;;;;;;;-143.53;100.00;58366.03;2047047;29;20203;-67
2022/05/12 01:11:21;;;;;;;2.35;1.85;;;;;;;-143.53;100.00;58366.03;2046237;28;20224;-68
2022/05/12 01:12:24;;;;;;;3.65;2.10;;;;;;;-143.53;100.00;58366.03;2047352;29;20243;-68
2022/05/12 01:13:27;;;;;;;3.17;2.35;;;;;;;-143.53;100.00;58366.03;2046731;29;20204;-68
2022/05/12 01:14:29;;;;;;;3.25;2.13;;;;;;;-143.53;100.00;58366.03;2048031;28;20282;-68
2022/05/12 01:15:31;;;;;;;4.10;1.60;;;;;;;-143.53;100.00;58366.03;2048056;28;20199;-68
2022/05/12 01:16:33;;;;;;;3.40;2.03;;;;;;;-143.53;100.00;58366.03;2046390;28;20603;-68
2022/05/12 01:17:35;;;;;;;4.20;2.20;;;;;;;-143.53;100.00;58366.03;2047953;28;20557;-68
2022/05/12 01:18:39;;;;;;;3.63;2.30;;;;;;;-143.53;100.00;58366.03;2047171;28;20206;-68
2022/05/12 01:19:41;;;;;;;8.02;2.20;;;;;;;-143.53;100.00;58366.03;2047860;29;20203;-68
2022/05/12 01:20:44;;;;;;;5.03;2.50;;;;;;;-143.53;100.00;58366.03;2047006;29;20204;-67
2022/05/12 01:21:48;;;;;;;2.65;1.95;;;;;;;-143.53;100.00;58366.03;2047323;28;20235;-68
2022/05/12 01:23:02;;;;;;;3.78;2.50;;;;;;;-143.53;100.00;58366.03;2046295;29;20548;-67
2022/05/12 01:24:04;;;;;;;4.88;2.45;;;;;;;-143.53;100.00;58366.03;2055173;28;20198;-68
2022/05/12 01:25:16;;;;;;;2.70;1.90;;;;;;;-143.53;100.00;58366.03;2052813;28;20250;-67
2022/05/12 01:26:18;;;;;;;8.15;3.28;;;;;;;-143.53;100.00;58366.03;2046055;28;20224;-67
2022/05/12 01:27:20;;;;;;;4.13;2.05;;;;;;;-143.53;100.00;58366.03;2046291;29;20207;-67
2022/05/12 01:28:21;;;;;;;11.75;2.45;;;;;;;-143.53;100.00;58366.03;2047495;28;20254;-67
2022/05/12 01:29:23;;;;;;;5.10;2.65;;;;;;;-143.53;100.00;58366.03;2047032;29;20751;-67
2022/05/12 01:30:25;;;;;;;4.93;2.40;;;;;;;-143.53;100.00;58366.03;2038965;29;20212;-67
2022/05/12 01:31:27;;;;;;;7.55;2.05;;;;;;;-143.53;100.00;58366.03;2046761;28;20231;-67
2022/05/12 01:32:29;;;;;;;3.25;2.13;;;;;;;-143.53;100.00;58366.03;2048057;28;20216;-67
2022/05/12 01:33:32;;;;;;;8.75;2.58;;;;;;;-143.53;100.00;58366.03;2046540;29;20282;-67
2022/05/12 01:34:33;;;;;;;8.00;3.33;;;;;;;-143.53;100.00;58366.03;2046962;28;20743;-67
2022/05/12 01:35:34;;;;;;;4.78;3.03;;;;;;;-143.53;100.00;58366.03;2047337;29;21021;-67
2022/05/12 01:36:36;;;;;;;7.50;3.25;;;;;;;-143.53;100.00;58366.03;2047361;28;20228;-67
2022/05/12 01:37:40;;;;;;;8.18;3.33;;;;;;;-143.53;100.00;58366.03;2046556;28;20200;-67
2022/05/12 01:38:42;;;;;;;12.80;3.40;;;;;;;-143.53;100.00;58366.03;2047064;29;20200;-67
2022/05/12 01:39:43;;;;;;;6.22;3.10;;;;;;;-143.53;100.00;58366.03;2047505;29;20805;-67
2022/05/12 01:40:45;;;;;;;8.63;3.47;;;;;;;-143.53;100.00;58366.03;2047735;28;20196;-67
2022/05/12 01:41:48;;;;;;;7.40;3.38;;;;;;;-143.53;100.00;58366.03;2045375;28;20223;-67
2022/05/12 01:42:50;;;;;;;9.25;3.35;;;;;;;-143.53;100.00;58366.03;2047951;28;20194;-67
2022/05/12 01:43:52;;;;;;;10.50;3.00;;;;;;;-143.53;100.00;58366.03;2041135;29;20208;-67
2022/05/12 01:44:53;;;;;;;8.90;3.42;;;;;;;-143.53;100.00;58366.03;2047266;29;20204;-67
2022/05/12 01:45:55;;;;;;;8.75;3.30;;;;;;;-143.53;100.00;58366.03;2046891;28;20199;-67
2022/05/12 01:46:57;;;;;;;7.70;2.85;;;;;;;-143.53;100.00;58366.03;2047553;28;20253;-67
2022/05/12 01:48:04;;;;;;;6.75;3.40;;;;;;;-143.53;100.00;58366.03;2047312;28;20208;-67
2022/05/12 01:49:06;;;;;;;11.18;3.03;;;;;;;-143.53;100.00;58366.03;2047177;28;20200;-67
2022/05/12 01:50:09;;;;;;;11.15;3.53;;;;;;;-143.53;100.00;58366.03;2047840;28;20207;-67
2022/05/12 01:51:11;;;;;;;8.15;3.53;;;;;;;-143.53;100.00;58366.03;2045256;28;20235;-67
2022/05/12 01:52:12;;;;;;;5.93;3.03;;;;;;;-143.53;100.00;58366.03;2047440;28;20203;-67
2022/05/12 01:53:15;;;;;;;13.10;3.80;;;;;;;-143.53;100.00;58366.03;2045982;29;20208;-67
2022/05/12 01:54:17;;;;;;;5.70;2.63;;;;;;;-143.53;100.00;58366.03;2047427;28;20529;-67
2022/05/12 01:55:20;;;;;;;11.75;2.72;;;;;;;-143.53;100.00;58366.03;2047357;28;20207;-67
2022/05/12 01:56:22;;;;;;;9.20;2.83;;;;;;;-143.53;100.00;58366.03;2047056;28;20227;-67
2022/05/12 01:57:23;;;;;;;9.27;2.47;;;;;;;-143.53;100.00;58366.03;2046419;29;20555;-67
2022/05/12 01:58:25;;;;;;;7.18;3.08;;;;;;;-143.53;100.00;58366.03;2047771;28;20215;-67
2022/05/12 01:59:27;;;;;;;6.10;2.47;;;;;;;-143.53;100.00;58366.03;2047862;28;20655;-67
2022/05/12 02:00:30;;;;;;;5.97;3.00;;;;;;;-143.53;100.00;58366.03;2047762;28;20207;-67
2022/05/12 02:01:31;;;;;;;5.70;2.70;;;;;;;-143.53;100.00;58366.03;2047156;28;20226;-67
2022/05/12 02:02:33;;;;;;;4.47;2.60;;;;;;;-143.53;100.00;58366.03;2046328;28;20663;-68
2022/05/12 02:03:35;;;;;;;5.28;2.95;;;;;;;-143.53;100.00;58366.03;2047378;28;20231;-67
2022/05/12 02:04:36;;;;;;;9.93;2.67;;;;;;;-143.53;100.00;58366.03;2047753;28;20204;-67
2022/05/12 02:05:39;;;;;;;3.97;2.28;;;;;;;-143.53;100.00;58366.03;2047151;28;20208;-67
2022/05/12 02:06:41;;;;;;;6.40;2.38;;;;;;;-143.53;100.00;58366.03;2046321;28;20315;-67
2022/05/12 02:07:45;;;;;;;20.00;2.90;;;;;;;-143.53;100.00;58366.03;2047579;28;20199;-68
2022/05/12 02:08:46;;;;;;;8.10;2.15;;;;;;;-143.53;100.00;58366.03;2045690;29;20206;-67
2022/05/12 02:09:48;;;;;;;10.68;2.80;;;;;;;-143.53;100.00;58366.03;2047001;29;20192;-67
2022/05/12 02:10:50;;;;;;;7.32;2.80;;;;;;;-143.53;100.00;58366.03;2046208;28;20204;-67
2022/05/12 02:11:52;;;;;;;4.10;2.33;;;;;;;-143.53;100.00;58366.03;2044733;29;20856;-67
2022/05/12 02:12:53;;;;;;;13.52;2.95;;;;;;;-143.53;100.00;58366.03;2044869;28;20421;-68
2022/05/12 02:13:55;;;;;;;4.90;2.05;;;;;;;-143.53;100.00;58366.03;2045258;28;20197;-67
2022/05/12 02:14:57;;;;;;;4.38;2.00;;;;;;;-143.53;100.00;58366.03;2047617;28;20211;-67
2022/05/12 02:15:58;;;;;;;4.22;2.60;;;;;;;-143.53;100.00;58366.03;2045143;28;20322;-68
2022/05/12 02:17:00;;;;;;;6.90;2.47;;;;;;;-143.53;100.00;58366.03;2047073;29;20950;-67
2022/05/12 02:18:02;;;;;;;4.05;2.30;;;;;;;-143.53;100.00;58366.03;2047155;29;20210;-68
2022/05/12 02:19:06;;;;;;;4.28;1.90;;;;;;;-143.53;100.00;58366.03;2046935;29;20200;-67
2022/05/12 02:20:10;;;;;;;5.50;2.45;;;;;;;-143.53;100.00;58366.03;2045948;29;20207;-67
2022/05/12 02:21:11;;;;;;;7.93;2.80;;;;;;;-143.53;100.00;58366.03;2045826;28;20695;-67
2022/05/12 02:22:12;;;;;;;3.10;2.20;;;;;;;-143.53;100.00;58366.03;2047184;28;20646;-67
2022/05/12 02:23:14;;;;;;;3.78;2.15;;;;;;;-143.53;100.00;58366.03;2047458;28;20207;-67
2022/05/12 02:24:16;;;;;;;2.28;1.80;;;;;;;-143.53;100.00;58366.03;2046536;29;20207;-67
2022/05/12 02:25:18;;;;;;;10.63;2.70;;;;;;;-143.53;100.00;58366.03;2047300;28;20397;-67
2022/05/12 02:26:19;;;;;;;5.15;2.83;;;;;;;-143.53;100.00;58366.03;2045463;28;20219;-67
2022/05/12 02:27:21;;;;;;;4.03;2.10;;;;;;;-143.53;100.00;58366.03;2047051;28;20235;-67
2022/05/12 02:28:23;;;;;;;6.60;2.25;;;;;;;-143.53;100.00;58366.03;2043963;29;20737;-67
2022/05/12 02:29:24;;;;;;;6.75;2.40;;;;;;;-143.53;100.00;58366.03;2047166;29;20204;-67
2022/05/12 02:30:28;;;;;;;2.67;2.10;;;;;;;-143.53;100.00;58366.03;2044669;28;20592;-67
2022/05/12 02:31:30;;;;;;;17.05;2.10;;;;;;;-143.53;100.00;58366.03;2045957;28;20231;-67
2022/05/12 02:32:32;;;;;;;3.28;2.08;;;;;;;-143.53;100.00;58366.03;2047273;28;20211;-68
2022/05/12 02:33:33;;;;;;;4.63;1.80;;;;;;;-143.53;100.00;58366.03;2046337;28;20223;-67
2022/05/12 02:34:35;;;;;;;4.05;1.45;;;;;;;-143.53;100.00;58366.03;2046365;29;20206;-67
2022/05/12 02:35:38;;;;;;;7.30;1.70;;;;;;;-143.53;100.00;58366.03;2047102;28;20207;-67
2022/05/12 02:36:39;;;;;;;5.22;1.67;;;;;;;-143.53;100.00;58366.03;2046709;28;20219;-67
2022/05/12 02:37:41;;;;;;;5.65;1.73;;;;;;;-143.53;100.00;58366.03;2045455;28;20203;-67
2022/05/12 02:38:43;;;;;;;5.05;2.20;;;;;;;-143.53;100.00;58366.03;2046756;28;20215;-67
2022/05/12 02:39:45;;;;;;;4.95;2.15;;;;;;;-143.53;100.00;58366.03;2047447;28;20229;-67
2022/05/12 02:40:46;;;;;;;2.53;1.52;;;;;;;-143.53;100.00;58366.03;2045596;28;20204;-67
2022/05/12 02:41:48;;;;;;;4.93;2.40;;;;;;;-143.53;100.00;58366.03;2042606;28;20216;-67
2022/05/12 02:42:50;;;;;;;4.63;2.10;;;;;;;-143.53;100.00;58366.03;2046600;29;20255;-67
2022/05/12 02:43:52;;;;;;;2.22;1.90;;;;;;;-143.53;100.00;58366.03;2046449;29;20207;-68
2022/05/12 02:44:54;;;;;;;3.55;1.77;;;;;;;-143.53;100.00;58366.03;2046213;29;20207;-67
2022/05/12 02:45:57;;;;;;;3.25;1.67;;;;;;;-143.53;100.00;58366.03;2046526;28;20274;-67
2022/05/12 02:46:59;;;;;;;3.17;2.25;;;;;;;-143.53;100.00;58366.03;2047290;29;20218;-67
2022/05/12 02:48:00;;;;;;;6.88;1.85;;;;;;;-143.53;100.00;58366.03;2047347;28;20287;-67
2022/05/12 02:49:02;;;;;;;13.35;2.13;;;;;;;-143.53;100.00;58366.03;2047249;28;20211;-67
2022/05/12 02:50:05;;;;;;;6.55;1.67;;;;;;;-143.53;100.00;58366.03;2047278;28;20208;-67
2022/05/12 02:51:07;;;;;;;1.85;1.42;;;;;;;-143.53;100.00;58366.03;2046219;28;20199;-67
2022/05/12 02:52:09;;;;;;;5.20;1.60;;;;;;;-143.53;100.00;58366.03;2046690;29;20702;-68
2022/05/12 02:53:11;;;;;;;3.08;1.88;;;;;;;-143.53;100.00;58366.03;2046598;29;20204;-67
2022/05/12 02:54:12;;;;;;;6.00;2.13;;;;;;;-143.53;100.00;58366.03;2046830;28;20667;-67
2022/05/12 02:55:14;;;;;;;3.75;2.10;;;;;;;-143.53;100.00;58366.03;2047330;28;20211;-67
2022/05/12 02:56:16;;;;;;;3.72;1.55;;;;;;;-143.53;100.00;58366.03;2046819;28;20761;-67
2022/05/12 02:57:18;;;;;;;3.85;1.70;;;;;;;-143.53;100.00;58366.03;2045885;28;20199;-67
2022/05/12 02:58:20;;;;;;;2.35;1.90;;;;;;;-143.53;100.00;58366.03;2045700;28;20204;-67
2022/05/12 02:59:22;;;;;;;5.13;2.15;;;;;;;-143.53;100.00;58366.03;2045656;28;20208;-67
2022/05/12 03:00:23;;;;;;;8.60;2.13;;;;;;;-143.53;100.00;58366.03;2045571;28;20204;-67
2022/05/12 03:01:25;;;;;;;5.43;1.77;;;;;;;-143.53;100.00;58366.03;2045670;28;20228;-67
2022/05/12 03:02:26;;;;;;;3.22;1.58;;;;;;;-143.53;100.00;58366.03;2047194;29;20200;-67
2022/05/12 03:03:28;;;;;;;10.95;1.50;;;;;;;-143.53;100.00;58366.03;2047402;28;20246;-67
2022/05/12 03:04:29;;;;;;;5.70;1.70;;;;;;;-143.53;100.00;58366.03;2047450;28;20640;-67
2022/05/12 03:05:32;;;;;;;4.32;2.10;;;;;;;-143.53;100.00;58366.03;2048513;28;20203;-67
2022/05/12 03:06:33;;;;;;;8.70;1.90;;;;;;;-143.53;100.00;58366.03;2047788;28;20232;-67
2022/05/12 03:07:35;;;;;;;4.82;1.75;;;;;;;-143.53;100.00;58366.03;2048859;28;20199;-67
2022/05/12 03:08:38;;;;;;;5.05;1.52;;;;;;;-143.53;100.00;58366.03;2048139;28;20292;-67
2022/05/12 03:09:40;;;;;;;8.02;1.50;;;;;;;-143.53;100.00;58366.03;2048147;29;20204;-68
2022/05/12 03:10:41;;;;;;;5.15;1.85;;;;;;;-143.53;100.00;58366.03;2043768;29;20210;-67
2022/05/12 03:11:43;;;;;;;5.35;1.65;;;;;;;-143.53;100.00;58366.03;2039302;29;20224;-67
2022/05/12 03:12:44;;;;;;;5.43;1.95;;;;;;;-143.53;100.00;58366.03;2047617;29;20211;-67
2022/05/12 03:13:48;;;;;;;3.63;2.00;;;;;;;-143.53;100.00;58366.03;2048846;28;20634;-67
2022/05/12 03:14:50;;;;;;;3.35;1.50;;;;;;;-143.53;100.00;58366.03;2047740;29;20204;-67
2022/05/12 03:15:52;;;;;;;2.83;2.10;;;;;;;-143.53;100.00;58366.03;2047733;28;20215;-67
2022/05/12 03:16:53;;;;;;;7.32;2.10;;;;;;;-143.53;100.00;58366.03;2048996;28;20763;-67
2022/05/12 03:17:56;;;;;;;4.55;1.80;;;;;;;-143.53;100.00;58366.03;2048698;28;20756;-67
2022/05/12 03:18:58;;;;;;;4.63;1.67;;;;;;;-143.53;100.00;58366.03;2047210;29;20208;-67
2022/05/12 03:20:00;;;;;;;1.90;1.63;;;;;;;-143.53;100.00;58366.03;2048424;28;20199;-67
2022/05/12 03:21:02;;;;;;;2.40;1.20;;;;;;;-143.53;100.00;58366.03;2047821;28;20214;-67
2022/05/12 03:22:03;;;;;;;6.20;1.88;;;;;;;-143.53;100.00;58366.03;2048565;28;20204;-67
2022/05/12 03:23:05;;;;;;;3.72;1.90;;;;;;;-143.53;100.00;58366.03;2048068;29;20712;-67
2022/05/12 03:24:07;;;;;;;2.92;1.63;;;;;;;-143.53;100.00;58366.03;2047907;29;20223;-67
2022/05/12 03:25:11;;;;;;;3.08;1.70;;;;;;;-143.53;100.00;58366.03;2048531;28;20226;-67
2022/05/12 03:26:13;;;;;;;2.90;1.60;;;;;;;-143.53;100.00;58366.03;2043348;28;20234;-67
2022/05/12 03:27:15;;;;;;;2.95;1.67;;;;;;;-143.53;100.00;58366.03;2044829;28;20208;-68
2022/05/12 03:28:22;;;;;;;5.00;1.73;;;;;;;-143.53;100.00;58366.03;2050211;29;20203;-68
2022/05/12 03:29:34;;;;;;;2.92;1.50;;;;;;;-143.53;100.00;58366.03;2048275;29;20207;-67
2022/05/12 03:30:36;;;;;;;1.98;1.30;;;;;;;-143.53;100.00;58366.03;2048549;28;20206;-67
2022/05/12 03:31:37;;;;;;;3.45;1.73;;;;;;;-143.53;100.00;58366.03;2047798;28;20323;-67
2022/05/12 03:32:40;;;;;;;4.35;1.35;;;;;;;-143.53;100.00;58366.03;2049697;28;20550;-67
2022/05/12 03:33:41;;;;;;;3.28;1.40;;;;;;;-143.53;100.00;58366.03;2048508;28;20725;-67
2022/05/12 03:34:44;;;;;;;1.65;1.20;;;;;;;-143.53;100.00;58366.03;2048445;28;20200;-67
2022/05/12 03:35:45;;;;;;;6.13;1.52;;;;;;;-143.53;100.00;58366.03;2047566;29;20203;-67
2022/05/12 03:36:47;;;;;;;6.30;1.75;;;;;;;-143.53;100.00;58366.03;2046539;28;20681;-68
2022/05/12 03:37:48;;;;;;;2.67;1.40;;;;;;;-143.53;100.00;58366.03;2047944;29;20204;-68
2022/05/12 03:38:50;;;;;;;4.00;1.50;;;;;;;-143.53;100.00;58366.03;2047996;29;20287;-68
2022/05/12 03:39:52;;;;;;;3.47;1.60;;;;;;;-143.53;100.00;58366.03;2048623;28;20195;-68
2022/05/12 03:40:53;;;;;;;8.88;1.83;;;;;;;-143.53;100.00;58366.03;2048200;28;20698;-68
2022/05/12 03:41:55;;;;;;;5.60;1.80;;;;;;;-143.53;100.00;58366.03;2048256;28;21066;-67
2022/05/12 03:42:58;;;;;;;4.70;2.05;;;;;;;-143.53;100.00;58366.03;2048153;28;20553;-68
2022/05/12 03:45:21;;;;;;;2.90;1.60;;;;;;;-143.53;100.00;58366.03;2048487;28;20215;-68
2022/05/12 03:46:23;;;;;;;4.53;1.48;;;;;;;-143.53;100.00;58366.03;2047289;28;20228;-67
2022/05/12 03:47:34;;;;;;;3.97;1.70;;;;;;;-143.53;100.00;58366.03;2048084;29;20597;-68
2022/05/12 03:48:39;;;;;;;2.90;1.80;;;;;;;-143.53;100.00;58366.03;2046586;29;20211;-68
2022/05/12 03:49:41;;;;;;;5.72;1.73;;;;;;;-143.53;100.00;58366.03;2047093;29;20312;-68
2022/05/12 03:50:43;;;;;;;4.10;1.40;;;;;;;-143.53;100.00;58366.03;2048066;28;20206;-68
2022/05/12 03:51:45;;;;;;;4.90;1.55;;;;;;;-143.53;100.00;58366.03;2046781;28;20348;-68
2022/05/12 03:52:48;;;;;;;4.70;1.45;;;;;;;-143.53;100.00;58366.03;2048119;28;20204;-68
2022/05/12 03:53:50;;;;;;;4.50;1.40;;;;;;;-143.53;100.00;58366.03;2048968;28;20219;-68
2022/05/12 03:54:52;;;;;;;3.33;2.17;;;;;;;-143.53;100.00;58366.03;2048024;29;20200;-67
2022/05/12 03:55:54;;;;;;;2.70;1.58;;;;;;;-143.53;100.00;58366.03;2047726;28;20204;-68
2022/05/12 03:56:55;;;;;;;3.97;1.30;;;;;;;-143.53;100.00;58366.03;2045622;29;20203;-68
2022/05/12 03:57:57;;;;;;;1.92;1.48;;;;;;;-143.53;100.00;58366.03;2047971;29;20660;-67
2022/05/12 03:58:58;;;;;;;3.17;1.35;;;;;;;-143.53;100.00;58366.03;2048286;28;20199;-68
2022/05/12 04:00:00;;;;;;;4.32;1.63;;;;;;;-143.53;100.00;58366.03;2048161;28;20192;-68
2022/05/12 04:01:04;;;;;;;10.52;1.80;;;;;;;-143.53;100.00;58366.03;2047883;28;20208;-67
2022/05/12 04:02:10;;;;;;;4.68;2.05;;;;;;;-143.53;100.00;58366.03;2047661;29;20250;-67
2022/05/12 04:03:12;;;;;;;4.13;1.75;;;;;;;-143.53;100.00;58366.03;2047997;29;20710;-67
2022/05/12 04:04:13;;;;;;;1.65;1.00;;;;;;;-143.53;100.00;58366.03;2048290;28;20298;-67
2022/05/12 04:05:18;;;;;;;4.95;1.33;;;;;;;-143.53;100.00;58366.03;2043614;29;20295;-67
2022/05/12 04:06:23;;;;;;;2.20;1.45;;;;;;;-143.53;100.00;58366.03;2044110;28;20625;-67
2022/05/12 04:07:25;;;;;;;2.67;1.48;;;;;;;-143.53;100.00;58366.03;2048239;28;20207;-67
2022/05/12 04:08:28;;;;;;;3.95;1.95;;;;;;;-143.53;100.00;58366.03;2044601;29;20201;-67
2022/05/12 04:09:29;;;;;;;3.20;1.33;;;;;;;-143.53;100.00;58366.03;2045061;28;20204;-67
2022/05/12 04:10:32;;;;;;;1.60;1.20;;;;;;;-143.53;100.00;58366.03;2047317;29;20219;-67
2022/05/12 04:11:34;;;;;;;4.93;1.50;;;;;;;-143.53;100.00;58366.03;2046571;28;20726;-67
2022/05/12 04:12:35;;;;;;;2.60;1.40;;;;;;;-143.53;100.00;58366.03;2048329;28;20588;-67
2022/05/12 04:13:37;;;;;;;2.17;1.55;;;;;;;-143.53;100.00;58366.03;2047755;29;20529;-67
2022/05/12 04:14:41;;;;;;;2.80;1.30;;;;;;;-143.53;100.00;58366.03;2047465;29;20207;-67
2022/05/12 04:15:43;;;;;;;4.13;1.40;;;;;;;-143.53;100.00;58366.03;2044609;28;20224;-67
2022/05/12 04:16:45;;;;;;;7.05;1.40;;;;;;;-143.53;100.00;58366.03;2047630;28;20227;-67
2022/05/12 04:17:59;;;;;;;3.30;1.70;;;;;;;-143.53;100.00;58366.03;2047218;29;20234;-67
2022/05/12 04:19:00;;;;;;;3.97;1.50;;;;;;;-143.53;100.00;58366.03;2047610;28;20210;-67
2022/05/12 04:20:07;;;;;;;3.42;1.25;;;;;;;-143.53;100.00;58366.03;2048048;28;20200;-67
2022/05/12 04:21:08;;;;;;;3.03;1.65;;;;;;;-143.53;100.00;58366.03;2046814;28;20536;-67
2022/05/12 04:22:10;;;;;;;3.75;1.77;;;;;;;-143.53;100.00;58366.03;2045944;29;20709;-67
2022/05/12 04:23:12;;;;;;;5.13;1.38;;;;;;;-143.53;100.00;58366.03;2047423;28;20261;-67
2022/05/12 04:24:14;;;;;;;8.57;1.70;;;;;;;-143.53;100.00;58366.03;2045709;29;20210;-67
2022/05/12 04:25:16;;;;;;;6.28;1.60;;;;;;;-143.53;100.00;58366.03;2048312;28;20226;-67
2022/05/12 04:26:18;;;;;;;2.60;1.50;;;;;;;-143.53;100.00;58366.03;2047688;28;20846;-67
2022/05/12 04:27:19;;;;;;;4.28;1.50;;;;;;;-143.53;100.00;58366.03;2048198;28;20211;-67
2022/05/12 04:28:21;;;;;;;6.80;1.55;;;;;;;-143.53;100.00;58366.03;2048113;28;20207;-67
2022/05/12 04:29:22;;;;;;;4.35;1.98;;;;;;;-143.53;100.00;58366.03;2048006;28;20200;-67
2022/05/12 04:30:26;;;;;;;8.52;1.60;;;;;;;-143.53;100.00;58366.03;2048035;28;20204;-67
2022/05/12 04:31:28;;;;;;;2.53;1.50;;;;;;;-143.53;100.00;58366.03;2047270;28;20242;-67
2022/05/12 04:32:30;;;;;;;7.65;1.52;;;;;;;-143.53;100.00;58366.03;2048264;28;20544;-67
2022/05/12 04:36:14;;;;;;;3.67;1.60;;;;;;;-143.53;100.00;58366.03;2045377;28;20234;-67
2022/05/12 04:37:16;;;;;;;3.33;1.67;;;;;;;-143.53;100.00;58366.03;2043200;29;20836;-67
2022/05/12 04:38:17;;;;;;;5.57;1.60;;;;;;;-143.53;100.00;58366.03;2047788;29;20211;-67
2022/05/12 04:39:19;;;;;;;5.03;1.40;;;;;;;-143.53;100.00;58366.03;2048186;28;20393;-67
2022/05/12 04:40:24;;;;;;;2.00;1.40;;;;;;;-143.53;100.00;58366.03;2047895;28;20212;-67
2022/05/12 04:41:26;;;;;;;4.97;1.55;;;;;;;-143.53;100.00;58366.03;2046921;28;20630;-67
2022/05/12 04:42:27;;;;;;;5.07;2.13;;;;;;;-143.53;100.00;58366.03;2048364;28;20210;-67
2022/05/12 04:43:29;;;;;;;7.60;1.70;;;;;;;-143.53;100.00;58366.03;2047920;28;20223;-67
2022/05/12 04:44:31;;;;;;;3.15;1.63;;;;;;;-143.53;100.00;58366.03;2048195;28;20206;-67
2022/05/12 04:45:33;;;;;;;2.47;1.38;;;;;;;-143.53;100.00;58366.03;2048128;28;20210;-71
2022/05/12 04:46:37;;;;;;;2.90;1.60;;;;;;;-143.53;100.00;58366.03;2047556;28;20247;-72
2022/05/12 04:47:39;;;;;;;6.30;2.00;;;;;;;-143.53;100.00;58366.03;2047081;28;20223;-72
2022/05/12 04:48:41;;;;;;;5.53;1.50;;;;;;;-143.53;100.00;58366.03;2047806;29;20196;-72